sensor_id;sensor_type;location;lat;lon;timestamp;P1;durP1;ratioP1;P2;durP2;ratioP2
23001;SDS011;11667;51.706;4.856;2023-03-14T00:00:32;8.15;;;1.50;;
23001;SDS011;11667;51.706;4.856;2023-03-14T00:03:01;8.58;;;1.45;;
23001;SDS011;11667;51.706;4.856;2023-03-14T00:05:31;6.20;;;1.32;;
23001;SDS011;11667;51.706;4.856;2023-03-14T00:08:02;10.38;;;1.70;;
23001;SDS011;11667;51.706;4.856;2023-03-14T00:10:32;9.53;;;1.50;;
23001;SDS011;11667;51.706;4.856;2023-03-14T00:13:01;6.85;;;1.50;;
23001;SDS011;11667;51.706;4.856;2023-03-14T00:15:32;9.20;;;1.47;;
23001;SDS011;11667;51.706;4.856;2023-03-14T00:18:02;8.53;;;1.40;;
23001;SDS011;11667;51.706;4.856;2023-03-14T00:20:31;8.70;;;1.60;;
23001;SDS011;11667;51.706;4.856;2023-03-14T00:23:00;7.47;;;1.27;;
23001;SDS011;11667;51.706;4.856;2023-03-14T00:25:30;7.12;;;1.45;;
23001;SDS011;11667;51.706;4.856;2023-03-14T00:27:59;8.30;;;1.42;;
23001;SDS011;11667;51.706;4.856;2023-03-14T00:30:29;12.60;;;1.90;;
23001;SDS011;11667;51.706;4.856;2023-03-14T00:32:58;5.17;;;1.40;;
23001;SDS011;11667;51.706;4.856;2023-03-14T00:35:27;6.60;;;1.42;;
23001;SDS011;11667;51.706;4.856;2023-03-14T00:37:57;9.25;;;1.87;;
23001;SDS011;11667;51.706;4.856;2023-03-14T00:40:27;8.33;;;1.60;;
23001;SDS011;11667;51.706;4.856;2023-03-14T00:42:56;10.60;;;1.50;;
23001;SDS011;11667;51.706;4.856;2023-03-14T00:45:27;10.48;;;1.60;;
23001;SDS011;11667;51.706;4.856;2023-03-14T00:47:56;9.68;;;1.40;;
23001;SDS011;11667;51.706;4.856;2023-03-14T00:50:26;11.05;;;1.60;;
23001;SDS011;11667;51.706;4.856;2023-03-14T00:52:56;5.62;;;1.32;;
23001;SDS011;11667;51.706;4.856;2023-03-14T00:55:26;9.73;;;1.62;;
23001;SDS011;11667;51.706;4.856;2023-03-14T00:57:55;9.18;;;1.70;;
23001;SDS011;11667;51.706;4.856;2023-03-14T01:00:25;9.23;;;1.75;;
23001;SDS011;11667;51.706;4.856;2023-03-14T01:02:54;9.70;;;1.70;;
23001;SDS011;11667;51.706;4.856;2023-03-14T01:05:24;10.78;;;1.72;;
23001;SDS011;11667;51.706;4.856;2023-03-14T01:07:53;8.33;;;1.75;;
23001;SDS011;11667;51.706;4.856;2023-03-14T01:10:23;8.93;;;1.52;;
23001;SDS011;11667;51.706;4.856;2023-03-14T01:12:53;10.78;;;2.47;;
23001;SDS011;11667;51.706;4.856;2023-03-14T01:15:22;7.12;;;1.80;;
23001;SDS011;11667;51.706;4.856;2023-03-14T01:17:52;8.83;;;1.90;;
23001;SDS011;11667;51.706;4.856;2023-03-14T01:20:22;12.18;;;2.40;;
23001;SDS011;11667;51.706;4.856;2023-03-14T01:22:53;8.63;;;2.60;;
23001;SDS011;11667;51.706;4.856;2023-03-14T01:25:22;9.50;;;2.35;;
23001;SDS011;11667;51.706;4.856;2023-03-14T01:27:52;10.82;;;2.40;;
23001;SDS011;11667;51.706;4.856;2023-03-14T01:30:22;18.70;;;3.15;;
23001;SDS011;11667;51.706;4.856;2023-03-14T01:32:51;15.55;;;2.80;;
23001;SDS011;11667;51.706;4.856;2023-03-14T01:35:20;8.25;;;2.27;;
23001;SDS011;11667;51.706;4.856;2023-03-14T01:37:50;12.90;;;2.60;;
23001;SDS011;11667;51.706;4.856;2023-03-14T01:40:20;10.60;;;2.20;;
23001;SDS011;11667;51.706;4.856;2023-03-14T01:43:06;11.73;;;2.40;;
23001;SDS011;11667;51.706;4.856;2023-03-14T01:48:33;14.65;;;2.67;;
23001;SDS011;11667;51.706;4.856;2023-03-14T01:51:24;8.95;;;2.00;;
23001;SDS011;11667;51.706;4.856;2023-03-14T01:54:12;10.48;;;2.20;;
23001;SDS011;11667;51.706;4.856;2023-03-14T01:56:35;11.60;;;2.37;;
23001;SDS011;11667;51.706;4.856;2023-03-14T01:59:06;10.03;;;2.55;;
23001;SDS011;11667;51.706;4.856;2023-03-14T02:01:36;10.80;;;2.50;;
23001;SDS011;11667;51.706;4.856;2023-03-14T02:04:08;9.73;;;2.60;;
23001;SDS011;11667;51.706;4.856;2023-03-14T02:06:46;8.23;;;2.30;;
23001;SDS011;11667;51.706;4.856;2023-03-14T02:09:14;7.67;;;2.30;;
23001;SDS011;11667;51.706;4.856;2023-03-14T02:11:44;8.63;;;2.12;;
23001;SDS011;11667;51.706;4.856;2023-03-14T02:14:19;6.37;;;2.30;;
23001;SDS011;11667;51.706;4.856;2023-03-14T02:17:10;8.43;;;2.22;;
23001;SDS011;11667;51.706;4.856;2023-03-14T02:19:56;8.23;;;2.08;;
23001;SDS011;11667;51.706;4.856;2023-03-14T02:22:40;12.05;;;2.40;;
23001;SDS011;11667;51.706;4.856;2023-03-14T02:25:20;9.10;;;2.40;;
23001;SDS011;11667;51.706;4.856;2023-03-14T02:27:50;11.20;;;2.22;;
23001;SDS011;11667;51.706;4.856;2023-03-14T02:30:23;8.83;;;2.00;;
23001;SDS011;11667;51.706;4.856;2023-03-14T02:33:03;11.28;;;2.58;;
23001;SDS011;11667;51.706;4.856;2023-03-14T02:35:35;8.70;;;1.95;;
23001;SDS011;11667;51.706;4.856;2023-03-14T02:38:11;9.45;;;2.20;;
23001;SDS011;11667;51.706;4.856;2023-03-14T02:40:50;11.45;;;2.00;;
23001;SDS011;11667;51.706;4.856;2023-03-14T02:43:20;13.53;;;2.50;;
23001;SDS011;11667;51.706;4.856;2023-03-14T02:45:51;13.65;;;2.35;;
23001;SDS011;11667;51.706;4.856;2023-03-14T02:48:24;9.98;;;2.12;;
23001;SDS011;11667;51.706;4.856;2023-03-14T02:51:00;10.78;;;2.12;;
23001;SDS011;11667;51.706;4.856;2023-03-14T02:53:31;14.05;;;1.80;;
23001;SDS011;11667;51.706;4.856;2023-03-14T02:56:04;10.18;;;2.58;;
23001;SDS011;11667;51.706;4.856;2023-03-14T02:58:34;11.43;;;2.27;;
23001;SDS011;11667;51.706;4.856;2023-03-14T03:01:05;14.23;;;2.35;;
23001;SDS011;11667;51.706;4.856;2023-03-14T03:03:34;10.58;;;2.40;;
23001;SDS011;11667;51.706;4.856;2023-03-14T03:06:04;12.90;;;2.55;;
23001;SDS011;11667;51.706;4.856;2023-03-14T03:08:34;13.58;;;2.33;;
23001;SDS011;11667;51.706;4.856;2023-03-14T03:11:04;13.48;;;2.40;;
23001;SDS011;11667;51.706;4.856;2023-03-14T03:13:34;10.13;;;1.98;;
23001;SDS011;11667;51.706;4.856;2023-03-14T03:16:04;10.50;;;2.35;;
23001;SDS011;11667;51.706;4.856;2023-03-14T03:18:34;11.70;;;2.20;;
23001;SDS011;11667;51.706;4.856;2023-03-14T03:21:04;11.20;;;2.33;;
23001;SDS011;11667;51.706;4.856;2023-03-14T03:23:36;12.57;;;2.30;;
23001;SDS011;11667;51.706;4.856;2023-03-14T03:26:05;13.15;;;2.40;;
23001;SDS011;11667;51.706;4.856;2023-03-14T03:28:36;14.23;;;2.37;;
23001;SDS011;11667;51.706;4.856;2023-03-14T03:31:07;13.13;;;2.45;;
23001;SDS011;11667;51.706;4.856;2023-03-14T03:33:38;12.03;;;1.90;;
23001;SDS011;11667;51.706;4.856;2023-03-14T03:36:08;14.00;;;1.98;;
23001;SDS011;11667;51.706;4.856;2023-03-14T03:38:38;10.63;;;2.30;;
23001;SDS011;11667;51.706;4.856;2023-03-14T03:41:08;14.55;;;2.17;;
23001;SDS011;11667;51.706;4.856;2023-03-14T03:43:38;12.50;;;2.33;;
23001;SDS011;11667;51.706;4.856;2023-03-14T03:46:08;9.80;;;2.20;;
23001;SDS011;11667;51.706;4.856;2023-03-14T03:48:38;9.90;;;2.62;;
23001;SDS011;11667;51.706;4.856;2023-03-14T03:51:11;8.30;;;1.80;;
23001;SDS011;11667;51.706;4.856;2023-03-14T03:53:42;8.23;;;2.10;;
23001;SDS011;11667;51.706;4.856;2023-03-14T03:56:13;8.10;;;1.95;;
23001;SDS011;11667;51.706;4.856;2023-03-14T03:58:43;9.05;;;2.00;;
23001;SDS011;11667;51.706;4.856;2023-03-14T04:01:12;13.53;;;2.20;;
23001;SDS011;11667;51.706;4.856;2023-03-14T04:03:44;5.67;;;2.05;;
23001;SDS011;11667;51.706;4.856;2023-03-14T04:06:13;9.20;;;1.60;;
23001;SDS011;11667;51.706;4.856;2023-03-14T04:08:45;8.25;;;1.67;;
23001;SDS011;11667;51.706;4.856;2023-03-14T04:11:19;10.15;;;2.20;;
23001;SDS011;11667;51.706;4.856;2023-03-14T04:13:53;11.45;;;1.85;;
23001;SDS011;11667;51.706;4.856;2023-03-14T04:16:23;7.85;;;1.75;;
23001;SDS011;11667;51.706;4.856;2023-03-14T04:18:54;8.30;;;2.20;;
23001;SDS011;11667;51.706;4.856;2023-03-14T04:21:25;8.85;;;1.57;;
23001;SDS011;11667;51.706;4.856;2023-03-14T04:23:56;9.20;;;1.80;;
23001;SDS011;11667;51.706;4.856;2023-03-14T04:26:27;7.83;;;1.87;;
23001;SDS011;11667;51.706;4.856;2023-03-14T04:28:56;9.60;;;2.37;;
23001;SDS011;11667;51.706;4.856;2023-03-14T04:31:26;6.75;;;1.98;;
23001;SDS011;11667;51.706;4.856;2023-03-14T04:33:55;7.25;;;2.12;;
23001;SDS011;11667;51.706;4.856;2023-03-14T04:36:26;6.50;;;2.10;;
23001;SDS011;11667;51.706;4.856;2023-03-14T04:38:57;10.20;;;2.40;;
23001;SDS011;11667;51.706;4.856;2023-03-14T04:41:27;6.45;;;2.22;;
23001;SDS011;11667;51.706;4.856;2023-03-14T04:43:56;8.13;;;2.27;;
23001;SDS011;11667;51.706;4.856;2023-03-14T04:46:26;9.13;;;2.80;;
23001;SDS011;11667;51.706;4.856;2023-03-14T04:48:56;10.53;;;3.35;;
23001;SDS011;11667;51.706;4.856;2023-03-14T04:51:26;8.70;;;3.42;;
23001;SDS011;11667;51.706;4.856;2023-03-14T04:53:55;10.95;;;3.95;;
23001;SDS011;11667;51.706;4.856;2023-03-14T04:56:25;11.45;;;3.90;;
23001;SDS011;11667;51.706;4.856;2023-03-14T04:58:55;12.43;;;4.12;;
23001;SDS011;11667;51.706;4.856;2023-03-14T05:01:24;10.55;;;4.10;;
23001;SDS011;11667;51.706;4.856;2023-03-14T05:04:12;12.05;;;4.53;;
23001;SDS011;11667;51.706;4.856;2023-03-14T05:07:00;11.12;;;5.30;;
23001;SDS011;11667;51.706;4.856;2023-03-14T05:09:34;11.33;;;5.47;;
23001;SDS011;11667;51.706;4.856;2023-03-14T05:12:20;10.08;;;5.15;;
23001;SDS011;11667;51.706;4.856;2023-03-14T05:14:54;12.63;;;5.90;;
23001;SDS011;11667;51.706;4.856;2023-03-14T05:17:43;11.70;;;6.30;;
23001;SDS011;11667;51.706;4.856;2023-03-14T05:20:33;13.75;;;6.22;;
23001;SDS011;11667;51.706;4.856;2023-03-14T05:23:20;15.93;;;6.62;;
23001;SDS011;11667;51.706;4.856;2023-03-14T05:25:51;16.37;;;7.08;;
23001;SDS011;11667;51.706;4.856;2023-03-14T05:28:26;19.15;;;7.60;;
23001;SDS011;11667;51.706;4.856;2023-03-14T05:30:57;15.75;;;8.10;;
23001;SDS011;11667;51.706;4.856;2023-03-14T05:33:28;17.75;;;7.90;;
23001;SDS011;11667;51.706;4.856;2023-03-14T05:36:06;17.62;;;8.90;;
23001;SDS011;11667;51.706;4.856;2023-03-14T05:38:52;20.10;;;9.18;;
23001;SDS011;11667;51.706;4.856;2023-03-14T05:41:26;18.73;;;9.15;;
23001;SDS011;11667;51.706;4.856;2023-03-14T05:44:14;19.98;;;9.10;;
23001;SDS011;11667;51.706;4.856;2023-03-14T05:46:45;16.85;;;8.03;;
23001;SDS011;11667;51.706;4.856;2023-03-14T05:49:33;19.30;;;8.55;;
23001;SDS011;11667;51.706;4.856;2023-03-14T05:52:04;16.90;;;8.73;;
23001;SDS011;11667;51.706;4.856;2023-03-14T05:54:51;22.15;;;8.68;;
23001;SDS011;11667;51.706;4.856;2023-03-14T05:57:39;19.75;;;8.90;;
23001;SDS011;11667;51.706;4.856;2023-03-14T06:00:26;18.15;;;8.00;;
23001;SDS011;11667;51.706;4.856;2023-03-14T06:02:57;18.70;;;8.30;;
23001;SDS011;11667;51.706;4.856;2023-03-14T06:05:29;20.82;;;9.03;;
23001;SDS011;11667;51.706;4.856;2023-03-14T06:08:00;18.25;;;8.05;;
23001;SDS011;11667;51.706;4.856;2023-03-14T06:10:30;21.27;;;9.05;;
23001;SDS011;11667;51.706;4.856;2023-03-14T06:13:00;22.42;;;8.90;;
23001;SDS011;11667;51.706;4.856;2023-03-14T06:15:30;18.30;;;8.88;;
23001;SDS011;11667;51.706;4.856;2023-03-14T06:18:00;21.45;;;9.53;;
23001;SDS011;11667;51.706;4.856;2023-03-14T06:20:30;20.35;;;9.00;;
23001;SDS011;11667;51.706;4.856;2023-03-14T06:23:00;20.97;;;9.03;;
23001;SDS011;11667;51.706;4.856;2023-03-14T06:25:30;20.55;;;9.55;;
23001;SDS011;11667;51.706;4.856;2023-03-14T06:28:00;14.75;;;6.58;;
23001;SDS011;11667;51.706;4.856;2023-03-14T06:30:30;5.58;;;2.80;;
23001;SDS011;11667;51.706;4.856;2023-03-14T06:33:00;4.85;;;2.67;;
23001;SDS011;11667;51.706;4.856;2023-03-14T06:35:30;5.65;;;2.80;;
23001;SDS011;11667;51.706;4.856;2023-03-14T06:37:59;7.58;;;2.47;;
23001;SDS011;11667;51.706;4.856;2023-03-14T06:40:29;7.37;;;2.10;;
23001;SDS011;11667;51.706;4.856;2023-03-14T06:43:01;5.75;;;1.70;;
23001;SDS011;11667;51.706;4.856;2023-03-14T06:45:31;3.50;;;1.32;;
23001;SDS011;11667;51.706;4.856;2023-03-14T06:48:01;3.62;;;1.40;;
23001;SDS011;11667;51.706;4.856;2023-03-14T06:50:33;3.40;;;1.30;;
23001;SDS011;11667;51.706;4.856;2023-03-14T06:53:03;3.35;;;1.10;;
23001;SDS011;11667;51.706;4.856;2023-03-14T06:55:34;6.28;;;1.67;;
23001;SDS011;11667;51.706;4.856;2023-03-14T06:58:03;2.70;;;1.20;;
23001;SDS011;11667;51.706;4.856;2023-03-14T07:00:36;3.72;;;1.22;;
23001;SDS011;11667;51.706;4.856;2023-03-14T07:03:05;3.08;;;1.40;;
23001;SDS011;11667;51.706;4.856;2023-03-14T07:05:38;5.80;;;1.70;;
23001;SDS011;11667;51.706;4.856;2023-03-14T07:08:11;5.37;;;1.50;;
23001;SDS011;11667;51.706;4.856;2023-03-14T07:10:41;4.08;;;1.50;;
23001;SDS011;11667;51.706;4.856;2023-03-14T07:13:11;5.40;;;1.57;;
23001;SDS011;11667;51.706;4.856;2023-03-14T07:15:45;2.72;;;1.60;;
23001;SDS011;11667;51.706;4.856;2023-03-14T07:18:15;4.70;;;1.75;;
23001;SDS011;11667;51.706;4.856;2023-03-14T07:20:46;4.08;;;1.70;;
23001;SDS011;11667;51.706;4.856;2023-03-14T07:23:18;3.50;;;1.60;;
23001;SDS011;11667;51.706;4.856;2023-03-14T07:25:49;8.25;;;1.75;;
23001;SDS011;11667;51.706;4.856;2023-03-14T07:28:22;5.72;;;1.50;;
23001;SDS011;11667;51.706;4.856;2023-03-14T07:30:53;3.77;;;1.07;;
23001;SDS011;11667;51.706;4.856;2023-03-14T07:33:25;5.13;;;1.33;;
23001;SDS011;11667;51.706;4.856;2023-03-14T07:35:54;6.12;;;1.30;;
23001;SDS011;11667;51.706;4.856;2023-03-14T07:38:24;6.25;;;1.40;;
23001;SDS011;11667;51.706;4.856;2023-03-14T07:40:59;10.60;;;1.87;;
23001;SDS011;11667;51.706;4.856;2023-03-14T07:43:30;10.18;;;1.60;;
23001;SDS011;11667;51.706;4.856;2023-03-14T07:46:00;5.87;;;1.52;;
23001;SDS011;11667;51.706;4.856;2023-03-14T07:48:30;8.13;;;1.75;;
23001;SDS011;11667;51.706;4.856;2023-03-14T07:50:59;8.33;;;2.00;;
23001;SDS011;11667;51.706;4.856;2023-03-14T07:53:28;7.80;;;1.50;;
23001;SDS011;11667;51.706;4.856;2023-03-14T07:55:58;9.20;;;1.47;;
23001;SDS011;11667;51.706;4.856;2023-03-14T07:58:27;6.53;;;1.70;;
23001;SDS011;11667;51.706;4.856;2023-03-14T08:00:57;8.25;;;1.50;;
23001;SDS011;11667;51.706;4.856;2023-03-14T08:03:27;7.10;;;2.17;;
23001;SDS011;11667;51.706;4.856;2023-03-14T08:05:56;14.15;;;2.60;;
23001;SDS011;11667;51.706;4.856;2023-03-14T08:08:26;6.92;;;2.30;;
23001;SDS011;11667;51.706;4.856;2023-03-14T08:10:55;10.40;;;2.30;;
23001;SDS011;11667;51.706;4.856;2023-03-14T08:13:24;10.88;;;1.90;;
23001;SDS011;11667;51.706;4.856;2023-03-14T08:15:54;7.37;;;1.60;;
23001;SDS011;11667;51.706;4.856;2023-03-14T08:18:23;5.53;;;1.30;;
23001;SDS011;11667;51.706;4.856;2023-03-14T08:20:52;7.05;;;1.42;;
23001;SDS011;11667;51.706;4.856;2023-03-14T08:23:21;5.62;;;1.30;;
23001;SDS011;11667;51.706;4.856;2023-03-14T08:25:51;7.75;;;1.50;;
23001;SDS011;11667;51.706;4.856;2023-03-14T08:28:20;5.12;;;1.50;;
23001;SDS011;11667;51.706;4.856;2023-03-14T08:30:51;5.60;;;1.40;;
23001;SDS011;11667;51.706;4.856;2023-03-14T08:33:22;2.87;;;1.47;;
23001;SDS011;11667;51.706;4.856;2023-03-14T08:35:52;3.35;;;1.77;;
23001;SDS011;11667;51.706;4.856;2023-03-14T08:38:23;5.75;;;1.62;;
23001;SDS011;11667;51.706;4.856;2023-03-14T08:40:56;4.17;;;1.60;;
23001;SDS011;11667;51.706;4.856;2023-03-14T08:43:27;2.95;;;1.10;;
23001;SDS011;11667;51.706;4.856;2023-03-14T08:46:02;3.35;;;0.80;;
23001;SDS011;11667;51.706;4.856;2023-03-14T08:48:28;3.70;;;0.80;;
23001;SDS011;11667;51.706;4.856;2023-03-14T08:51:11;4.30;;;1.30;;
23001;SDS011;11667;51.706;4.856;2023-03-14T08:53:42;11.85;;;4.00;;
23001;SDS011;11667;51.706;4.856;2023-03-14T08:56:11;10.60;;;4.10;;
23001;SDS011;11667;51.706;4.856;2023-03-14T08:58:41;11.80;;;3.92;;
23001;SDS011;11667;51.706;4.856;2023-03-14T09:01:10;8.20;;;2.50;;
23001;SDS011;11667;51.706;4.856;2023-03-14T09:03:39;6.08;;;2.30;;
23001;SDS011;11667;51.706;4.856;2023-03-14T09:06:09;5.97;;;1.95;;
23001;SDS011;11667;51.706;4.856;2023-03-14T09:08:39;4.62;;;1.50;;
23001;SDS011;11667;51.706;4.856;2023-03-14T09:11:08;3.77;;;1.57;;
23001;SDS011;11667;51.706;4.856;2023-03-14T09:13:38;4.50;;;1.50;;
23001;SDS011;11667;51.706;4.856;2023-03-14T09:16:07;3.87;;;1.98;;
23001;SDS011;11667;51.706;4.856;2023-03-14T09:18:37;3.70;;;1.60;;
23001;SDS011;11667;51.706;4.856;2023-03-14T09:21:07;5.40;;;1.95;;
23001;SDS011;11667;51.706;4.856;2023-03-14T09:23:36;5.00;;;2.05;;
23001;SDS011;11667;51.706;4.856;2023-03-14T09:26:05;8.08;;;1.90;;
23001;SDS011;11667;51.706;4.856;2023-03-14T09:28:35;8.23;;;1.85;;
23001;SDS011;11667;51.706;4.856;2023-03-14T09:31:05;4.65;;;1.42;;
23001;SDS011;11667;51.706;4.856;2023-03-14T09:33:36;4.60;;;1.40;;
23001;SDS011;11667;51.706;4.856;2023-03-14T09:36:06;7.62;;;1.37;;
23001;SDS011;11667;51.706;4.856;2023-03-14T09:38:35;6.28;;;1.40;;
23001;SDS011;11667;51.706;4.856;2023-03-14T09:41:12;7.37;;;1.22;;
23001;SDS011;11667;51.706;4.856;2023-03-14T09:43:46;5.12;;;1.35;;
23001;SDS011;11667;51.706;4.856;2023-03-14T09:46:18;7.55;;;1.40;;
23001;SDS011;11667;51.706;4.856;2023-03-14T09:48:48;9.70;;;1.87;;
23001;SDS011;11667;51.706;4.856;2023-03-14T09:51:17;8.28;;;1.40;;
23001;SDS011;11667;51.706;4.856;2023-03-14T09:53:50;3.80;;;1.10;;
23001;SDS011;11667;51.706;4.856;2023-03-14T09:56:23;5.42;;;1.02;;
23001;SDS011;11667;51.706;4.856;2023-03-14T09:58:55;4.80;;;1.12;;
23001;SDS011;11667;51.706;4.856;2023-03-14T10:04:09;7.10;;;1.42;;
23001;SDS011;11667;51.706;4.856;2023-03-14T10:06:34;7.62;;;1.27;;
23001;SDS011;11667;51.706;4.856;2023-03-14T10:09:04;10.80;;;2.08;;
23001;SDS011;11667;51.706;4.856;2023-03-14T10:11:33;8.45;;;1.82;;
23001;SDS011;11667;51.706;4.856;2023-03-14T10:14:04;13.58;;;1.87;;
23001;SDS011;11667;51.706;4.856;2023-03-14T10:16:44;12.33;;;1.87;;
23001;SDS011;11667;51.706;4.856;2023-03-14T10:19:15;12.58;;;1.75;;
23001;SDS011;11667;51.706;4.856;2023-03-14T10:21:52;14.13;;;1.70;;
23001;SDS011;11667;51.706;4.856;2023-03-14T10:27:04;14.63;;;2.05;;
23001;SDS011;11667;51.706;4.856;2023-03-14T10:29:35;11.45;;;2.10;;
23001;SDS011;11667;51.706;4.856;2023-03-14T10:32:10;14.05;;;1.42;;
23001;SDS011;11667;51.706;4.856;2023-03-14T10:34:41;8.15;;;1.50;;
23001;SDS011;11667;51.706;4.856;2023-03-14T10:37:17;11.03;;;1.98;;
23001;SDS011;11667;51.706;4.856;2023-03-14T10:39:54;9.45;;;1.80;;
23001;SDS011;11667;51.706;4.856;2023-03-14T10:42:28;14.83;;;2.42;;
23001;SDS011;11667;51.706;4.856;2023-03-14T10:45:10;18.95;;;2.50;;
23001;SDS011;11667;51.706;4.856;2023-03-14T10:47:57;20.35;;;2.65;;
23001;SDS011;11667;51.706;4.856;2023-03-14T10:50:32;15.35;;;2.50;;
23001;SDS011;11667;51.706;4.856;2023-03-14T10:53:02;16.75;;;2.12;;
23001;SDS011;11667;51.706;4.856;2023-03-14T10:55:41;12.50;;;2.37;;
23001;SDS011;11667;51.706;4.856;2023-03-14T10:58:22;19.15;;;2.17;;
23001;SDS011;11667;51.706;4.856;2023-03-14T11:01:00;26.52;;;2.80;;
23001;SDS011;11667;51.706;4.856;2023-03-14T11:03:35;16.65;;;2.35;;
23001;SDS011;11667;51.706;4.856;2023-03-14T11:06:10;19.60;;;2.50;;
23001;SDS011;11667;51.706;4.856;2023-03-14T11:08:55;20.60;;;2.83;;
23001;SDS011;11667;51.706;4.856;2023-03-14T11:11:34;20.77;;;2.98;;
23001;SDS011;11667;51.706;4.856;2023-03-14T11:17:00;27.70;;;3.10;;
23001;SDS011;11667;51.706;4.856;2023-03-14T11:19:42;22.25;;;3.35;;
23001;SDS011;11667;51.706;4.856;2023-03-14T11:22:28;24.15;;;3.20;;
23001;SDS011;11667;51.706;4.856;2023-03-14T11:27:51;14.65;;;2.35;;
23001;SDS011;11667;51.706;4.856;2023-03-14T11:33:19;20.52;;;3.12;;
23001;SDS011;11667;51.706;4.856;2023-03-14T11:35:52;24.67;;;2.65;;
23001;SDS011;11667;51.706;4.856;2023-03-14T11:41:14;21.82;;;2.45;;
23001;SDS011;11667;51.706;4.856;2023-03-14T11:43:53;20.68;;;2.70;;
23001;SDS011;11667;51.706;4.856;2023-03-14T11:46:26;19.37;;;3.02;;
23001;SDS011;11667;51.706;4.856;2023-03-14T11:51:34;23.02;;;2.98;;
23001;SDS011;11667;51.706;4.856;2023-03-14T11:56:53;17.82;;;2.22;;
23001;SDS011;11667;51.706;4.856;2023-03-14T11:59:29;16.87;;;2.47;;
23001;SDS011;11667;51.706;4.856;2023-03-14T12:10:43;15.85;;;2.20;;
23001;SDS011;11667;51.706;4.856;2023-03-14T12:13:19;13.38;;;1.92;;
23001;SDS011;11667;51.706;4.856;2023-03-14T12:15:50;15.95;;;1.90;;
23001;SDS011;11667;51.706;4.856;2023-03-14T12:18:27;13.32;;;2.33;;
23001;SDS011;11667;51.706;4.856;2023-03-14T12:21:03;14.68;;;1.98;;
23001;SDS011;11667;51.706;4.856;2023-03-14T12:23:37;8.93;;;1.22;;
23001;SDS011;11667;51.706;4.856;2023-03-14T12:26:21;5.35;;;1.40;;
23001;SDS011;11667;51.706;4.856;2023-03-14T12:44:45;9.65;;;1.47;;
23001;SDS011;11667;51.706;4.856;2023-03-14T12:49:52;9.63;;;1.50;;
23001;SDS011;11667;51.706;4.856;2023-03-14T12:55:10;10.50;;;1.77;;
23001;SDS011;11667;51.706;4.856;2023-03-14T12:57:42;9.15;;;1.60;;
23001;SDS011;11667;51.706;4.856;2023-03-14T13:00:18;11.28;;;2.00;;
23001;SDS011;11667;51.706;4.856;2023-03-14T13:02:49;6.08;;;1.40;;
23001;SDS011;11667;51.706;4.856;2023-03-14T13:05:20;8.83;;;1.70;;
23001;SDS011;11667;51.706;4.856;2023-03-14T13:10:27;10.53;;;1.72;;
23001;SDS011;11667;51.706;4.856;2023-03-14T13:13:13;7.45;;;1.72;;
23001;SDS011;11667;51.706;4.856;2023-03-14T13:15:42;7.50;;;1.32;;
23001;SDS011;11667;51.706;4.856;2023-03-14T13:21:24;9.90;;;1.60;;
23001;SDS011;11667;51.706;4.856;2023-03-14T13:23:58;7.87;;;1.22;;
23001;SDS011;11667;51.706;4.856;2023-03-14T13:26:37;6.50;;;1.22;;
23001;SDS011;11667;51.706;4.856;2023-03-14T13:29:21;5.42;;;1.30;;
23001;SDS011;11667;51.706;4.856;2023-03-14T13:31:54;5.97;;;1.00;;
23001;SDS011;11667;51.706;4.856;2023-03-14T13:34:32;6.37;;;1.30;;
23001;SDS011;11667;51.706;4.856;2023-03-14T13:36:57;9.00;;;1.30;;
23001;SDS011;11667;51.706;4.856;2023-03-14T13:39:27;7.12;;;1.50;;
23001;SDS011;11667;51.706;4.856;2023-03-14T13:42:00;10.68;;;1.80;;
23001;SDS011;11667;51.706;4.856;2023-03-14T13:44:30;11.80;;;1.75;;
23001;SDS011;11667;51.706;4.856;2023-03-14T13:47:01;8.83;;;1.52;;
23001;SDS011;11667;51.706;4.856;2023-03-14T13:49:32;9.13;;;1.70;;
23001;SDS011;11667;51.706;4.856;2023-03-14T13:52:04;8.75;;;1.40;;
23001;SDS011;11667;51.706;4.856;2023-03-14T13:54:35;8.95;;;1.32;;
23001;SDS011;11667;51.706;4.856;2023-03-14T13:57:06;10.75;;;1.70;;
23001;SDS011;11667;51.706;4.856;2023-03-14T13:59:35;10.48;;;1.30;;
23001;SDS011;11667;51.706;4.856;2023-03-14T14:02:24;6.90;;;1.47;;
23001;SDS011;11667;51.706;4.856;2023-03-14T14:04:44;10.65;;;1.20;;
23001;SDS011;11667;51.706;4.856;2023-03-14T14:07:15;11.60;;;1.42;;
23001;SDS011;11667;51.706;4.856;2023-03-14T14:09:50;9.30;;;1.27;;
23001;SDS011;11667;51.706;4.856;2023-03-14T14:15:09;10.38;;;1.40;;
23001;SDS011;11667;51.706;4.856;2023-03-14T14:17:35;7.22;;;1.40;;
23001;SDS011;11667;51.706;4.856;2023-03-14T14:20:22;7.45;;;1.32;;
23001;SDS011;11667;51.706;4.856;2023-03-14T14:22:54;8.55;;;1.32;;
23001;SDS011;11667;51.706;4.856;2023-03-14T14:25:23;7.62;;;1.30;;
23001;SDS011;11667;51.706;4.856;2023-03-14T14:27:53;9.08;;;1.85;;
23001;SDS011;11667;51.706;4.856;2023-03-14T14:30:25;6.92;;;1.27;;
23001;SDS011;11667;51.706;4.856;2023-03-14T14:33:10;8.30;;;1.25;;
23001;SDS011;11667;51.706;4.856;2023-03-14T14:35:41;11.88;;;1.85;;
23001;SDS011;11667;51.706;4.856;2023-03-14T14:38:12;17.23;;;1.70;;
23001;SDS011;11667;51.706;4.856;2023-03-14T14:40:45;4.62;;;1.42;;
23001;SDS011;11667;51.706;4.856;2023-03-14T14:43:17;8.70;;;1.40;;
23001;SDS011;11667;51.706;4.856;2023-03-14T14:45:55;6.37;;;1.60;;
23001;SDS011;11667;51.706;4.856;2023-03-14T14:48:27;9.73;;;1.50;;
23001;SDS011;11667;51.706;4.856;2023-03-14T14:50:56;8.53;;;1.23;;
23001;SDS011;11667;51.706;4.856;2023-03-14T14:53:40;10.40;;;1.60;;
23001;SDS011;11667;51.706;4.856;2023-03-14T14:56:26;7.85;;;1.40;;
23001;SDS011;11667;51.706;4.856;2023-03-14T14:58:51;9.63;;;1.30;;
23001;SDS011;11667;51.706;4.856;2023-03-14T15:01:23;8.15;;;1.32;;
23001;SDS011;11667;51.706;4.856;2023-03-14T15:03:55;8.28;;;1.42;;
23001;SDS011;11667;51.706;4.856;2023-03-14T15:06:26;8.10;;;1.30;;
23001;SDS011;11667;51.706;4.856;2023-03-14T15:08:56;5.58;;;1.20;;
23001;SDS011;11667;51.706;4.856;2023-03-14T15:11:26;7.42;;;1.25;;
23001;SDS011;11667;51.706;4.856;2023-03-14T15:13:56;4.50;;;1.17;;
23001;SDS011;11667;51.706;4.856;2023-03-14T15:16:27;6.30;;;1.10;;
23001;SDS011;11667;51.706;4.856;2023-03-14T15:18:58;6.27;;;1.50;;
23001;SDS011;11667;51.706;4.856;2023-03-14T15:21:33;5.70;;;1.20;;
23001;SDS011;11667;51.706;4.856;2023-03-14T15:24:03;6.17;;;1.30;;
23001;SDS011;11667;51.706;4.856;2023-03-14T15:26:33;7.62;;;1.60;;
23001;SDS011;11667;51.706;4.856;2023-03-14T15:29:03;8.28;;;1.70;;
23001;SDS011;11667;51.706;4.856;2023-03-14T15:31:34;16.30;;;1.60;;
23001;SDS011;11667;51.706;4.856;2023-03-14T15:34:03;10.00;;;1.72;;
23001;SDS011;11667;51.706;4.856;2023-03-14T15:36:33;9.65;;;1.60;;
23001;SDS011;11667;51.706;4.856;2023-03-14T15:39:04;9.05;;;1.55;;
23001;SDS011;11667;51.706;4.856;2023-03-14T15:41:34;13.08;;;2.15;;
23001;SDS011;11667;51.706;4.856;2023-03-14T15:44:04;9.45;;;1.50;;
23001;SDS011;11667;51.706;4.856;2023-03-14T15:46:33;8.55;;;1.50;;
23001;SDS011;11667;51.706;4.856;2023-03-14T15:49:02;9.40;;;1.52;;
23001;SDS011;11667;51.706;4.856;2023-03-14T15:51:32;9.15;;;1.42;;
23001;SDS011;11667;51.706;4.856;2023-03-14T15:54:02;9.10;;;1.35;;
23001;SDS011;11667;51.706;4.856;2023-03-14T15:56:31;7.00;;;1.35;;
23001;SDS011;11667;51.706;4.856;2023-03-14T15:59:00;7.25;;;1.25;;
23001;SDS011;11667;51.706;4.856;2023-03-14T16:01:30;10.30;;;1.55;;
23001;SDS011;11667;51.706;4.856;2023-03-14T16:04:02;6.45;;;1.45;;
23001;SDS011;11667;51.706;4.856;2023-03-14T16:06:31;7.80;;;1.32;;
23001;SDS011;11667;51.706;4.856;2023-03-14T16:09:02;6.15;;;1.12;;
23001;SDS011;11667;51.706;4.856;2023-03-14T16:11:31;8.38;;;1.10;;
23001;SDS011;11667;51.706;4.856;2023-03-14T16:14:01;5.90;;;1.22;;
23001;SDS011;11667;51.706;4.856;2023-03-14T16:16:30;6.95;;;1.42;;